This is the latest recevied weather packets stored in our database for station/object KM4KMS. If no packets are shown the sender has not sent any weather packets the latest 10 day(s).
| Time | Temp. | Humidity | Pressure | Rain* | Wind** | Luminosity | Snow |
|---|---|---|---|---|---|---|---|
| 1778085452 | 15.56° C | 70% | 1012.6 hPa | 0 mm | - | 687 W/m² | - |
| 1778085146 | 14.44° C | 70% | 1012.8 hPa | 0 mm | - | 675 W/m² | - |
| 1778084843 | 14.44° C | 71% | 1012.7 hPa | 0 mm | - | 714 W/m² | - |
| 1778084541 | 15° C | 70% | 1012.5 hPa | 0 mm | - | 773 W/m² | - |
| 1778084237 | 13.89° C | 74% | 1012.9 hPa | 0 mm | - | 788 W/m² | - |
| 1778083929 | 13.33° C | 76% | 1012.9 hPa | 0 mm | - | 744 W/m² | - |
| 1778083627 | 13.33° C | 78% | 1012.5 hPa | 0 mm | - | 616 W/m² | - |
| 1778083323 | 13.89° C | 71% | 1012.5 hPa | 0 mm | - | 780 W/m² | - |
| 1778083022 | 13.89° C | 73% | 1012.6 hPa | 0 mm | - | 721 W/m² | - |
| 1778082718 | 13.33° C | 73% | 1012.5 hPa | 0 mm | - | 819 W/m² | - |
| 1778081581 | 12.78° C | 78% | 1012.2 hPa | 0 mm | - | 557 W/m² | - |
| 1778081277 | 12.78° C | 79% | 1012.2 hPa | 0 mm | - | 620 W/m² | - |
| 1778080974 | 12.78° C | 80% | 1012.2 hPa | 0 mm | - | 654 W/m² | - |
| 1778080673 | 12.78° C | 77% | 1012.3 hPa | 0 mm | - | 635 W/m² | - |
| 1778080370 | 13.33° C | 75% | 1012.1 hPa | 0 mm | - | 664 W/m² | - |
| 1778080066 | 12.78° C | 77% | 1011.8 hPa | 0 mm | - | 669 W/m² | - |
| 1778079763 | 12.22° C | 79% | 1012.1 hPa | 0 mm | - | 415 W/m² | - |
| 1778079460 | 11.67° C | 76% | 1012 hPa | 0 mm | - | 625 W/m² | - |
| 1778079156 | 12.78° C | 76% | 1012.2 hPa | 0 mm | - | 784 W/m² | - |
| 1778078854 | 11.67° C | 79% | 1012.4 hPa | 0 mm | - | 667 W/m² | - |
| 1778078551 | 11.11° C | 79% | 1012.3 hPa | 0 mm | - | 637 W/m² | - |
| 1778078248 | 11.67° C | 81% | 1012.1 hPa | 0 mm | - | 401 W/m² | - |
| 1778077946 | 12.22° C | 79% | 1011.9 hPa | 0 mm | - | 372 W/m² | - |
| 1778077644 | 11.67° C | 78% | 1012 hPa | 0 mm | - | 454 W/m² | - |
| 1778077342 | 11.11° C | 80% | 1011.9 hPa | 0 mm | - | 455 W/m² | - |
* Rain latest hour (hover to see other rain measurements)
** Current wind speed in m/s (hover to see current wind gust speed)